sensor_id;sensor_type;location;lat;lon;timestamp;P1;durP1;ratioP1;P2;durP2;ratioP2
9720;SDS011;4899;42.644;23.366;2024-01-16T00:01:08;16.13;;;11.73;;
9720;SDS011;4899;42.644;23.366;2024-01-16T00:03:34;16.00;;;11.63;;
9720;SDS011;4899;42.644;23.366;2024-01-16T00:06:00;13.13;;;10.87;;
9720;SDS011;4899;42.644;23.366;2024-01-16T00:08:25;15.37;;;11.37;;
9720;SDS011;4899;42.644;23.366;2024-01-16T00:10:50;14.70;;;11.13;;
9720;SDS011;4899;42.644;23.366;2024-01-16T00:13:16;13.80;;;10.87;;
9720;SDS011;4899;42.644;23.366;2024-01-16T00:15:42;15.33;;;10.93;;
9720;SDS011;4899;42.644;23.366;2024-01-16T00:18:07;14.13;;;11.20;;
9720;SDS011;4899;42.644;23.366;2024-01-16T00:20:33;13.83;;;10.53;;
9720;SDS011;4899;42.644;23.366;2024-01-16T00:22:59;15.47;;;11.17;;
9720;SDS011;4899;42.644;23.366;2024-01-16T00:25:24;15.00;;;11.53;;
9720;SDS011;4899;42.644;23.366;2024-01-16T00:27:50;12.50;;;10.17;;
9720;SDS011;4899;42.644;23.366;2024-01-16T00:30:15;15.30;;;10.57;;
9720;SDS011;4899;42.644;23.366;2024-01-16T00:32:40;12.60;;;8.97;;
9720;SDS011;4899;42.644;23.366;2024-01-16T00:35:06;13.50;;;10.03;;
9720;SDS011;4899;42.644;23.366;2024-01-16T00:37:31;14.17;;;10.37;;
9720;SDS011;4899;42.644;23.366;2024-01-16T00:39:56;17.10;;;11.70;;
9720;SDS011;4899;42.644;23.366;2024-01-16T00:42:22;15.03;;;11.13;;
9720;SDS011;4899;42.644;23.366;2024-01-16T00:44:47;13.47;;;10.63;;
9720;SDS011;4899;42.644;23.366;2024-01-16T00:47:13;13.63;;;10.67;;
9720;SDS011;4899;42.644;23.366;2024-01-16T00:49:38;13.30;;;10.00;;
9720;SDS011;4899;42.644;23.366;2024-01-16T00:52:03;13.30;;;10.47;;
9720;SDS011;4899;42.644;23.366;2024-01-16T00:54:29;14.87;;;10.07;;
9720;SDS011;4899;42.644;23.366;2024-01-16T00:56:54;14.10;;;9.93;;
9720;SDS011;4899;42.644;23.366;2024-01-16T00:59:24;12.70;;;10.23;;
9720;SDS011;4899;42.644;23.366;2024-01-16T01:01:50;12.97;;;9.80;;
9720;SDS011;4899;42.644;23.366;2024-01-16T01:04:15;10.83;;;8.90;;
9720;SDS011;4899;42.644;23.366;2024-01-16T01:06:40;11.87;;;9.03;;
9720;SDS011;4899;42.644;23.366;2024-01-16T01:09:06;12.37;;;9.47;;
9720;SDS011;4899;42.644;23.366;2024-01-16T01:11:31;12.57;;;10.67;;
9720;SDS011;4899;42.644;23.366;2024-01-16T01:13:57;12.53;;;9.23;;
9720;SDS011;4899;42.644;23.366;2024-01-16T01:16:22;13.83;;;10.10;;
9720;SDS011;4899;42.644;23.366;2024-01-16T01:18:47;14.13;;;10.67;;
9720;SDS011;4899;42.644;23.366;2024-01-16T01:21:13;12.90;;;10.60;;
9720;SDS011;4899;42.644;23.366;2024-01-16T01:23:38;10.43;;;8.60;;
9720;SDS011;4899;42.644;23.366;2024-01-16T01:26:03;14.70;;;9.97;;
9720;SDS011;4899;42.644;23.366;2024-01-16T01:28:29;13.00;;;10.60;;
9720;SDS011;4899;42.644;23.366;2024-01-16T01:30:55;13.60;;;10.27;;
9720;SDS011;4899;42.644;23.366;2024-01-16T01:33:20;12.90;;;10.57;;
9720;SDS011;4899;42.644;23.366;2024-01-16T01:35:46;14.93;;;10.90;;
9720;SDS011;4899;42.644;23.366;2024-01-16T01:38:11;12.87;;;10.70;;
9720;SDS011;4899;42.644;23.366;2024-01-16T01:40:36;13.53;;;10.73;;
9720;SDS011;4899;42.644;23.366;2024-01-16T01:43:20;14.10;;;10.50;;
9720;SDS011;4899;42.644;23.366;2024-01-16T01:48:30;14.80;;;10.87;;
9720;SDS011;4899;42.644;23.366;2024-01-16T01:50:57;15.23;;;10.80;;
9720;SDS011;4899;42.644;23.366;2024-01-16T01:53:22;11.00;;;9.57;;
9720;SDS011;4899;42.644;23.366;2024-01-16T01:55:48;11.60;;;8.83;;
9720;SDS011;4899;42.644;23.366;2024-01-16T01:58:14;10.30;;;8.20;;
9720;SDS011;4899;42.644;23.366;2024-01-16T02:00:39;10.27;;;8.80;;
9720;SDS011;4899;42.644;23.366;2024-01-16T02:03:04;9.70;;;8.13;;
9720;SDS011;4899;42.644;23.366;2024-01-16T02:05:30;11.07;;;8.50;;
9720;SDS011;4899;42.644;23.366;2024-01-16T02:07:56;10.37;;;8.27;;
9720;SDS011;4899;42.644;23.366;2024-01-16T02:10:21;9.63;;;8.03;;
9720;SDS011;4899;42.644;23.366;2024-01-16T02:12:46;9.03;;;7.60;;
9720;SDS011;4899;42.644;23.366;2024-01-16T02:15:12;10.73;;;8.03;;
9720;SDS011;4899;42.644;23.366;2024-01-16T02:17:37;9.93;;;7.83;;
9720;SDS011;4899;42.644;23.366;2024-01-16T02:20:03;8.97;;;7.40;;
9720;SDS011;4899;42.644;23.366;2024-01-16T02:22:28;10.23;;;8.00;;
9720;SDS011;4899;42.644;23.366;2024-01-16T02:24:57;7.30;;;6.60;;
9720;SDS011;4899;42.644;23.366;2024-01-16T02:27:22;9.27;;;6.77;;
9720;SDS011;4899;42.644;23.366;2024-01-16T02:29:48;8.27;;;7.00;;
9720;SDS011;4899;42.644;23.366;2024-01-16T02:32:15;8.80;;;6.67;;
9720;SDS011;4899;42.644;23.366;2024-01-16T02:34:40;8.60;;;7.33;;
9720;SDS011;4899;42.644;23.366;2024-01-16T02:37:06;9.37;;;7.07;;
9720;SDS011;4899;42.644;23.366;2024-01-16T02:39:32;8.63;;;7.47;;
9720;SDS011;4899;42.644;23.366;2024-01-16T02:41:57;8.10;;;6.50;;
9720;SDS011;4899;42.644;23.366;2024-01-16T02:44:22;8.80;;;7.23;;
9720;SDS011;4899;42.644;23.366;2024-01-16T02:46:48;8.63;;;6.17;;
9720;SDS011;4899;42.644;23.366;2024-01-16T02:49:13;8.43;;;6.60;;
9720;SDS011;4899;42.644;23.366;2024-01-16T02:51:38;8.37;;;6.23;;
9720;SDS011;4899;42.644;23.366;2024-01-16T02:54:05;6.33;;;5.73;;
9720;SDS011;4899;42.644;23.366;2024-01-16T02:56:31;8.93;;;6.07;;
9720;SDS011;4899;42.644;23.366;2024-01-16T02:58:56;7.60;;;5.80;;
9720;SDS011;4899;42.644;23.366;2024-01-16T03:01:21;7.33;;;5.87;;
9720;SDS011;4899;42.644;23.366;2024-01-16T03:03:47;6.87;;;6.13;;
9720;SDS011;4899;42.644;23.366;2024-01-16T03:06:22;11.60;;;8.17;;
9720;SDS011;4899;42.644;23.366;2024-01-16T03:08:48;10.97;;;7.80;;
9720;SDS011;4899;42.644;23.366;2024-01-16T03:11:13;10.37;;;8.50;;
9720;SDS011;4899;42.644;23.366;2024-01-16T03:13:39;9.50;;;8.20;;
9720;SDS011;4899;42.644;23.366;2024-01-16T03:16:06;9.87;;;7.80;;
9720;SDS011;4899;42.644;23.366;2024-01-16T03:18:31;10.23;;;7.97;;
9720;SDS011;4899;42.644;23.366;2024-01-16T03:20:58;9.97;;;8.37;;
9720;SDS011;4899;42.644;23.366;2024-01-16T03:23:23;9.07;;;7.57;;
9720;SDS011;4899;42.644;23.366;2024-01-16T03:25:48;9.07;;;8.17;;
9720;SDS011;4899;42.644;23.366;2024-01-16T03:28:13;7.83;;;6.33;;
9720;SDS011;4899;42.644;23.366;2024-01-16T03:30:39;6.90;;;6.27;;
9720;SDS011;4899;42.644;23.366;2024-01-16T03:33:04;7.33;;;6.30;;
9720;SDS011;4899;42.644;23.366;2024-01-16T03:35:30;7.10;;;6.40;;
9720;SDS011;4899;42.644;23.366;2024-01-16T03:37:55;6.57;;;5.53;;
9720;SDS011;4899;42.644;23.366;2024-01-16T03:40:20;5.10;;;4.60;;
9720;SDS011;4899;42.644;23.366;2024-01-16T03:42:46;6.27;;;4.60;;
9720;SDS011;4899;42.644;23.366;2024-01-16T03:45:11;4.93;;;4.47;;
9720;SDS011;4899;42.644;23.366;2024-01-16T03:47:36;4.10;;;3.80;;
9720;SDS011;4899;42.644;23.366;2024-01-16T03:50:02;4.90;;;4.40;;
9720;SDS011;4899;42.644;23.366;2024-01-16T03:52:27;4.57;;;4.17;;
9720;SDS011;4899;42.644;23.366;2024-01-16T03:54:53;4.10;;;3.80;;
9720;SDS011;4899;42.644;23.366;2024-01-16T03:57:18;4.30;;;3.90;;
9720;SDS011;4899;42.644;23.366;2024-01-16T03:59:43;4.10;;;3.80;;
9720;SDS011;4899;42.644;23.366;2024-01-16T04:02:09;3.70;;;3.40;;
9720;SDS011;4899;42.644;23.366;2024-01-16T04:04:34;3.47;;;3.17;;
9720;SDS011;4899;42.644;23.366;2024-01-16T04:06:59;3.60;;;3.30;;
9720;SDS011;4899;42.644;23.366;2024-01-16T04:09:25;3.73;;;3.43;;
9720;SDS011;4899;42.644;23.366;2024-01-16T04:11:50;3.37;;;3.07;;
9720;SDS011;4899;42.644;23.366;2024-01-16T04:14:16;3.10;;;2.90;;
9720;SDS011;4899;42.644;23.366;2024-01-16T04:16:41;3.40;;;3.20;;
9720;SDS011;4899;42.644;23.366;2024-01-16T04:19:06;2.40;;;2.20;;
9720;SDS011;4899;42.644;23.366;2024-01-16T04:21:31;2.80;;;2.60;;
9720;SDS011;4899;42.644;23.366;2024-01-16T04:23:57;1.87;;;1.77;;
9720;SDS011;4899;42.644;23.366;2024-01-16T04:26:22;2.60;;;2.40;;
9720;SDS011;4899;42.644;23.366;2024-01-16T04:28:48;2.23;;;2.07;;
9720;SDS011;4899;42.644;23.366;2024-01-16T04:31:14;2.33;;;2.20;;
9720;SDS011;4899;42.644;23.366;2024-01-16T04:33:41;1.93;;;1.83;;
9720;SDS011;4899;42.644;23.366;2024-01-16T04:36:07;2.00;;;1.90;;
9720;SDS011;4899;42.644;23.366;2024-01-16T04:38:32;1.63;;;1.53;;
9720;SDS011;4899;42.644;23.366;2024-01-16T04:41:00;2.20;;;2.00;;
9720;SDS011;4899;42.644;23.366;2024-01-16T04:43:25;1.97;;;1.83;;
9720;SDS011;4899;42.644;23.366;2024-01-16T04:45:51;2.30;;;1.90;;
9720;SDS011;4899;42.644;23.366;2024-01-16T04:48:16;2.00;;;1.90;;
9720;SDS011;4899;42.644;23.366;2024-01-16T04:50:42;1.87;;;1.70;;
9720;SDS011;4899;42.644;23.366;2024-01-16T04:53:07;1.50;;;1.40;;
9720;SDS011;4899;42.644;23.366;2024-01-16T04:55:32;1.63;;;1.53;;
9720;SDS011;4899;42.644;23.366;2024-01-16T04:57:58;1.70;;;1.60;;
9720;SDS011;4899;42.644;23.366;2024-01-16T05:00:25;1.90;;;1.80;;
9720;SDS011;4899;42.644;23.366;2024-01-16T05:02:50;1.70;;;1.60;;
9720;SDS011;4899;42.644;23.366;2024-01-16T05:05:16;1.80;;;1.70;;
9720;SDS011;4899;42.644;23.366;2024-01-16T05:07:41;1.70;;;1.60;;
9720;SDS011;4899;42.644;23.366;2024-01-16T05:10:09;1.67;;;1.57;;
9720;SDS011;4899;42.644;23.366;2024-01-16T05:12:34;1.47;;;1.37;;
9720;SDS011;4899;42.644;23.366;2024-01-16T05:15:00;1.73;;;1.63;;
9720;SDS011;4899;42.644;23.366;2024-01-16T05:17:25;1.30;;;1.30;;
9720;SDS011;4899;42.644;23.366;2024-01-16T05:19:50;1.70;;;1.60;;
9720;SDS011;4899;42.644;23.366;2024-01-16T05:22:16;1.70;;;1.60;;
9720;SDS011;4899;42.644;23.366;2024-01-16T05:24:41;1.90;;;1.80;;
9720;SDS011;4899;42.644;23.366;2024-01-16T05:27:06;1.37;;;1.33;;
9720;SDS011;4899;42.644;23.366;2024-01-16T05:29:32;1.10;;;1.10;;
9720;SDS011;4899;42.644;23.366;2024-01-16T05:31:57;1.37;;;1.27;;
9720;SDS011;4899;42.644;23.366;2024-01-16T05:34:22;1.53;;;1.43;;
9720;SDS011;4899;42.644;23.366;2024-01-16T05:36:48;1.10;;;1.10;;
9720;SDS011;4899;42.644;23.366;2024-01-16T05:39:13;1.03;;;1.03;;
9720;SDS011;4899;42.644;23.366;2024-01-16T05:41:38;1.23;;;1.23;;
9720;SDS011;4899;42.644;23.366;2024-01-16T05:44:04;1.10;;;1.10;;
9720;SDS011;4899;42.644;23.366;2024-01-16T05:46:31;1.30;;;1.20;;
9720;SDS011;4899;42.644;23.366;2024-01-16T05:48:56;1.40;;;1.33;;
9720;SDS011;4899;42.644;23.366;2024-01-16T05:51:21;1.70;;;1.60;;
9720;SDS011;4899;42.644;23.366;2024-01-16T05:53:47;2.03;;;1.53;;
9720;SDS011;4899;42.644;23.366;2024-01-16T05:56:12;0.90;;;0.90;;
9720;SDS011;4899;42.644;23.366;2024-01-16T05:58:37;1.70;;;1.60;;
9720;SDS011;4899;42.644;23.366;2024-01-16T06:01:04;2.20;;;1.60;;
9720;SDS011;4899;42.644;23.366;2024-01-16T06:03:30;1.43;;;1.33;;
9720;SDS011;4899;42.644;23.366;2024-01-16T06:05:55;1.10;;;1.10;;
9720;SDS011;4899;42.644;23.366;2024-01-16T06:08:20;1.60;;;1.50;;
9720;SDS011;4899;42.644;23.366;2024-01-16T06:10:46;1.67;;;1.57;;
9720;SDS011;4899;42.644;23.366;2024-01-16T06:13:11;1.67;;;1.57;;
9720;SDS011;4899;42.644;23.366;2024-01-16T06:15:37;1.40;;;1.37;;
9720;SDS011;4899;42.644;23.366;2024-01-16T06:18:02;2.20;;;2.00;;
9720;SDS011;4899;42.644;23.366;2024-01-16T06:20:27;1.90;;;1.80;;
9720;SDS011;4899;42.644;23.366;2024-01-16T06:22:54;2.70;;;2.17;;
9720;SDS011;4899;42.644;23.366;2024-01-16T06:25:19;2.57;;;2.37;;
9720;SDS011;4899;42.644;23.366;2024-01-16T06:27:44;1.37;;;1.30;;
9720;SDS011;4899;42.644;23.366;2024-01-16T06:30:10;1.63;;;1.53;;
9720;SDS011;4899;42.644;23.366;2024-01-16T06:32:35;1.90;;;1.80;;
9720;SDS011;4899;42.644;23.366;2024-01-16T06:35:01;2.07;;;1.97;;
9720;SDS011;4899;42.644;23.366;2024-01-16T06:37:26;2.00;;;1.90;;
9720;SDS011;4899;42.644;23.366;2024-01-16T06:39:52;2.07;;;1.97;;
9720;SDS011;4899;42.644;23.366;2024-01-16T06:42:17;2.10;;;2.00;;
9720;SDS011;4899;42.644;23.366;2024-01-16T06:44:43;1.87;;;1.77;;
9720;SDS011;4899;42.644;23.366;2024-01-16T06:47:08;2.00;;;1.90;;
9720;SDS011;4899;42.644;23.366;2024-01-16T06:49:33;1.70;;;1.60;;
9720;SDS011;4899;42.644;23.366;2024-01-16T06:51:59;1.80;;;1.70;;
9720;SDS011;4899;42.644;23.366;2024-01-16T06:54:24;1.60;;;1.50;;
9720;SDS011;4899;42.644;23.366;2024-01-16T06:56:49;1.63;;;1.53;;
9720;SDS011;4899;42.644;23.366;2024-01-16T06:59:15;1.60;;;1.50;;
9720;SDS011;4899;42.644;23.366;2024-01-16T07:01:41;2.37;;;1.63;;
9720;SDS011;4899;42.644;23.366;2024-01-16T07:04:06;1.93;;;1.50;;
9720;SDS011;4899;42.644;23.366;2024-01-16T07:06:32;2.10;;;1.90;;
9720;SDS011;4899;42.644;23.366;2024-01-16T07:08:57;2.03;;;1.87;;
9720;SDS011;4899;42.644;23.366;2024-01-16T07:11:22;2.20;;;1.73;;
9720;SDS011;4899;42.644;23.366;2024-01-16T07:13:47;1.83;;;1.47;;
9720;SDS011;4899;42.644;23.366;2024-01-16T07:16:13;2.80;;;1.90;;
9720;SDS011;4899;42.644;23.366;2024-01-16T07:18:39;3.87;;;2.10;;
9720;SDS011;4899;42.644;23.366;2024-01-16T07:21:15;2.67;;;1.90;;
9720;SDS011;4899;42.644;23.366;2024-01-16T07:23:40;2.80;;;1.60;;
9720;SDS011;4899;42.644;23.366;2024-01-16T07:26:06;1.80;;;1.70;;
9720;SDS011;4899;42.644;23.366;2024-01-16T07:28:31;1.90;;;1.73;;
9720;SDS011;4899;42.644;23.366;2024-01-16T07:30:56;1.87;;;1.60;;
9720;SDS011;4899;42.644;23.366;2024-01-16T07:33:22;1.43;;;1.33;;
9720;SDS011;4899;42.644;23.366;2024-01-16T07:35:47;1.97;;;1.73;;
9720;SDS011;4899;42.644;23.366;2024-01-16T07:38:13;1.70;;;1.43;;
9720;SDS011;4899;42.644;23.366;2024-01-16T07:40:38;1.20;;;1.10;;
9720;SDS011;4899;42.644;23.366;2024-01-16T07:43:03;2.03;;;1.70;;
9720;SDS011;4899;42.644;23.366;2024-01-16T07:45:29;2.53;;;1.70;;
9720;SDS011;4899;42.644;23.366;2024-01-16T07:47:54;2.57;;;2.00;;
9720;SDS011;4899;42.644;23.366;2024-01-16T07:50:19;1.80;;;1.70;;
9720;SDS011;4899;42.644;23.366;2024-01-16T07:52:44;1.90;;;1.80;;
9720;SDS011;4899;42.644;23.366;2024-01-16T07:55:10;3.17;;;2.90;;
9720;SDS011;4899;42.644;23.366;2024-01-16T07:57:35;1.97;;;1.87;;
9720;SDS011;4899;42.644;23.366;2024-01-16T08:00:00;2.40;;;1.90;;
9720;SDS011;4899;42.644;23.366;2024-01-16T08:02:30;1.27;;;1.17;;
9720;SDS011;4899;42.644;23.366;2024-01-16T08:04:56;1.30;;;1.20;;
9720;SDS011;4899;42.644;23.366;2024-01-16T08:07:22;1.40;;;1.30;;
9720;SDS011;4899;42.644;23.366;2024-01-16T08:09:47;1.50;;;1.40;;
9720;SDS011;4899;42.644;23.366;2024-01-16T08:12:12;1.60;;;1.50;;
9720;SDS011;4899;42.644;23.366;2024-01-16T08:14:38;1.67;;;1.43;;
9720;SDS011;4899;42.644;23.366;2024-01-16T08:17:03;1.80;;;1.70;;
9720;SDS011;4899;42.644;23.366;2024-01-16T08:19:28;1.53;;;1.43;;
9720;SDS011;4899;42.644;23.366;2024-01-16T08:21:54;1.50;;;1.40;;
9720;SDS011;4899;42.644;23.366;2024-01-16T08:24:19;1.77;;;1.67;;
9720;SDS011;4899;42.644;23.366;2024-01-16T08:26:45;1.67;;;1.57;;
9720;SDS011;4899;42.644;23.366;2024-01-16T08:29:10;1.93;;;1.80;;
9720;SDS011;4899;42.644;23.366;2024-01-16T08:31:35;2.40;;;2.20;;
9720;SDS011;4899;42.644;23.366;2024-01-16T08:34:01;1.60;;;1.50;;
9720;SDS011;4899;42.644;23.366;2024-01-16T08:36:26;1.80;;;1.30;;
9720;SDS011;4899;42.644;23.366;2024-01-16T08:38:51;1.50;;;1.40;;
9720;SDS011;4899;42.644;23.366;2024-01-16T08:41:17;1.63;;;1.53;;
9720;SDS011;4899;42.644;23.366;2024-01-16T08:43:42;1.23;;;1.17;;
9720;SDS011;4899;42.644;23.366;2024-01-16T08:46:08;0.87;;;0.87;;
9720;SDS011;4899;42.644;23.366;2024-01-16T08:48:33;1.00;;;1.00;;
9720;SDS011;4899;42.644;23.366;2024-01-16T08:50:58;1.63;;;1.53;;
9720;SDS011;4899;42.644;23.366;2024-01-16T08:53:24;1.50;;;1.40;;
9720;SDS011;4899;42.644;23.366;2024-01-16T08:55:49;1.63;;;1.53;;
9720;SDS011;4899;42.644;23.366;2024-01-16T08:58:15;3.43;;;1.80;;
9720;SDS011;4899;42.644;23.366;2024-01-16T09:00:40;2.10;;;1.90;;
9720;SDS011;4899;42.644;23.366;2024-01-16T09:03:05;1.67;;;1.50;;
9720;SDS011;4899;42.644;23.366;2024-01-16T09:05:31;1.50;;;1.40;;
9720;SDS011;4899;42.644;23.366;2024-01-16T09:07:56;1.87;;;1.63;;
9720;SDS011;4899;42.644;23.366;2024-01-16T09:10:21;3.73;;;2.67;;
9720;SDS011;4899;42.644;23.366;2024-01-16T09:12:47;2.23;;;1.53;;
9720;SDS011;4899;42.644;23.366;2024-01-16T09:15:13;2.27;;;2.00;;
9720;SDS011;4899;42.644;23.366;2024-01-16T09:17:39;2.97;;;2.43;;
9720;SDS011;4899;42.644;23.366;2024-01-16T09:20:05;2.10;;;1.90;;
9720;SDS011;4899;42.644;23.366;2024-01-16T09:22:31;3.20;;;1.73;;
9720;SDS011;4899;42.644;23.366;2024-01-16T09:24:57;1.87;;;1.73;;
9720;SDS011;4899;42.644;23.366;2024-01-16T09:27:22;1.33;;;1.23;;
9720;SDS011;4899;42.644;23.366;2024-01-16T09:29:47;2.10;;;1.70;;
9720;SDS011;4899;42.644;23.366;2024-01-16T09:32:14;3.33;;;2.03;;
9720;SDS011;4899;42.644;23.366;2024-01-16T09:34:39;2.00;;;1.80;;
9720;SDS011;4899;42.644;23.366;2024-01-16T09:37:04;1.50;;;1.40;;
9720;SDS011;4899;42.644;23.366;2024-01-16T09:39:30;1.50;;;1.40;;
9720;SDS011;4899;42.644;23.366;2024-01-16T09:41:57;1.10;;;1.10;;
9720;SDS011;4899;42.644;23.366;2024-01-16T09:44:24;2.47;;;1.63;;
9720;SDS011;4899;42.644;23.366;2024-01-16T09:46:50;3.30;;;1.67;;
9720;SDS011;4899;42.644;23.366;2024-01-16T09:49:16;1.70;;;1.57;;
9720;SDS011;4899;42.644;23.366;2024-01-16T09:51:42;3.53;;;2.00;;
9720;SDS011;4899;42.644;23.366;2024-01-16T09:54:08;2.00;;;1.90;;
9720;SDS011;4899;42.644;23.366;2024-01-16T09:56:34;1.70;;;1.60;;
9720;SDS011;4899;42.644;23.366;2024-01-16T09:59:03;1.80;;;1.70;;
9720;SDS011;4899;42.644;23.366;2024-01-16T10:01:30;2.00;;;1.80;;
9720;SDS011;4899;42.644;23.366;2024-01-16T10:03:55;1.50;;;1.40;;
9720;SDS011;4899;42.644;23.366;2024-01-16T10:06:21;2.10;;;1.90;;
9720;SDS011;4899;42.644;23.366;2024-01-16T10:08:48;1.70;;;1.60;;
9720;SDS011;4899;42.644;23.366;2024-01-16T10:11:13;1.97;;;1.80;;
9720;SDS011;4899;42.644;23.366;2024-01-16T10:13:38;1.70;;;1.40;;
9720;SDS011;4899;42.644;23.366;2024-01-16T10:16:04;1.50;;;1.40;;
9720;SDS011;4899;42.644;23.366;2024-01-16T10:18:29;1.70;;;1.60;;
9720;SDS011;4899;42.644;23.366;2024-01-16T10:20:55;1.63;;;1.53;;
9720;SDS011;4899;42.644;23.366;2024-01-16T10:23:27;1.30;;;1.20;;
9720;SDS011;4899;42.644;23.366;2024-01-16T10:26:11;1.50;;;1.40;;
9720;SDS011;4899;42.644;23.366;2024-01-16T10:28:40;1.93;;;1.73;;
9720;SDS011;4899;42.644;23.366;2024-01-16T10:31:10;2.27;;;1.63;;
9720;SDS011;4899;42.644;23.366;2024-01-16T10:33:36;1.53;;;1.23;;
9720;SDS011;4899;42.644;23.366;2024-01-16T10:36:08;1.80;;;1.70;;
9720;SDS011;4899;42.644;23.366;2024-01-16T10:38:37;1.53;;;1.43;;
9720;SDS011;4899;42.644;23.366;2024-01-16T10:41:13;4.23;;;1.93;;
9720;SDS011;4899;42.644;23.366;2024-01-16T10:43:39;1.70;;;1.60;;
9720;SDS011;4899;42.644;23.366;2024-01-16T10:46:08;1.97;;;1.70;;
9720;SDS011;4899;42.644;23.366;2024-01-16T10:48:34;2.30;;;1.70;;
9720;SDS011;4899;42.644;23.366;2024-01-16T10:50:59;1.63;;;1.53;;
9720;SDS011;4899;42.644;23.366;2024-01-16T10:53:26;3.07;;;1.70;;
9720;SDS011;4899;42.644;23.366;2024-01-16T10:55:53;1.30;;;1.20;;
9720;SDS011;4899;42.644;23.366;2024-01-16T10:58:23;1.13;;;1.00;;
9720;SDS011;4899;42.644;23.366;2024-01-16T11:00:50;1.90;;;1.30;;
9720;SDS011;4899;42.644;23.366;2024-01-16T11:03:18;1.83;;;1.50;;
9720;SDS011;4899;42.644;23.366;2024-01-16T11:05:44;1.97;;;1.80;;
9720;SDS011;4899;42.644;23.366;2024-01-16T11:08:11;2.77;;;1.53;;
9720;SDS011;4899;42.644;23.366;2024-01-16T11:10:38;2.00;;;1.23;;
9720;SDS011;4899;42.644;23.366;2024-01-16T11:13:04;3.20;;;1.83;;
9720;SDS011;4899;42.644;23.366;2024-01-16T11:15:30;1.97;;;1.87;;
9720;SDS011;4899;42.644;23.366;2024-01-16T11:17:56;1.77;;;1.40;;
9720;SDS011;4899;42.644;23.366;2024-01-16T11:20:23;1.60;;;1.50;;
9720;SDS011;4899;42.644;23.366;2024-01-16T11:22:49;2.33;;;1.77;;
9720;SDS011;4899;42.644;23.366;2024-01-16T11:25:15;2.43;;;2.20;;
9720;SDS011;4899;42.644;23.366;2024-01-16T11:27:41;2.93;;;1.87;;
9720;SDS011;4899;42.644;23.366;2024-01-16T11:30:08;2.90;;;2.50;;
9720;SDS011;4899;42.644;23.366;2024-01-16T11:32:40;3.93;;;2.67;;
9720;SDS011;4899;42.644;23.366;2024-01-16T11:35:06;4.17;;;3.07;;
9720;SDS011;4899;42.644;23.366;2024-01-16T11:37:32;2.23;;;2.07;;
9720;SDS011;4899;42.644;23.366;2024-01-16T11:42:42;2.47;;;2.27;;
9720;SDS011;4899;42.644;23.366;2024-01-16T11:45:08;2.00;;;1.90;;
9720;SDS011;4899;42.644;23.366;2024-01-16T11:50:48;2.73;;;1.90;;
9720;SDS011;4899;42.644;23.366;2024-01-16T12:01:07;2.27;;;1.73;;
9720;SDS011;4899;42.644;23.366;2024-01-16T12:03:33;2.33;;;1.80;;
9720;SDS011;4899;42.644;23.366;2024-01-16T12:05:59;2.40;;;2.20;;
9720;SDS011;4899;42.644;23.366;2024-01-16T12:08:24;2.70;;;2.50;;
9720;SDS011;4899;42.644;23.366;2024-01-16T12:10:50;3.00;;;2.43;;
9720;SDS011;4899;42.644;23.366;2024-01-16T12:13:15;3.60;;;3.17;;
9720;SDS011;4899;42.644;23.366;2024-01-16T12:15:41;3.07;;;2.83;;
9720;SDS011;4899;42.644;23.366;2024-01-16T12:18:07;2.60;;;2.40;;
9720;SDS011;4899;42.644;23.366;2024-01-16T12:20:34;3.83;;;2.63;;
9720;SDS011;4899;42.644;23.366;2024-01-16T12:23:03;2.00;;;1.90;;
9720;SDS011;4899;42.644;23.366;2024-01-16T12:25:29;2.40;;;2.20;;
9720;SDS011;4899;42.644;23.366;2024-01-16T12:30:23;1.80;;;1.70;;
9720;SDS011;4899;42.644;23.366;2024-01-16T12:32:48;1.70;;;1.60;;
9720;SDS011;4899;42.644;23.366;2024-01-16T12:35:19;2.03;;;1.70;;
9720;SDS011;4899;42.644;23.366;2024-01-16T12:37:56;3.43;;;2.07;;
9720;SDS011;4899;42.644;23.366;2024-01-16T12:40:22;2.57;;;2.00;;
9720;SDS011;4899;42.644;23.366;2024-01-16T12:42:47;3.50;;;2.40;;
9720;SDS011;4899;42.644;23.366;2024-01-16T12:45:14;2.40;;;2.20;;
9720;SDS011;4899;42.644;23.366;2024-01-16T12:47:40;2.20;;;2.00;;
9720;SDS011;4899;42.644;23.366;2024-01-16T12:50:05;2.10;;;1.90;;
9720;SDS011;4899;42.644;23.366;2024-01-16T12:52:31;3.67;;;1.80;;
9720;SDS011;4899;42.644;23.366;2024-01-16T12:55:00;2.00;;;1.80;;
9720;SDS011;4899;42.644;23.366;2024-01-16T12:57:33;2.30;;;2.10;;
9720;SDS011;4899;42.644;23.366;2024-01-16T12:59:59;2.93;;;2.13;;
9720;SDS011;4899;42.644;23.366;2024-01-16T13:02:27;2.50;;;2.30;;
9720;SDS011;4899;42.644;23.366;2024-01-16T13:04:56;3.00;;;2.50;;
9720;SDS011;4899;42.644;23.366;2024-01-16T13:07:22;4.53;;;3.10;;
9720;SDS011;4899;42.644;23.366;2024-01-16T13:09:47;2.77;;;2.23;;
9720;SDS011;4899;42.644;23.366;2024-01-16T13:12:19;3.70;;;2.17;;
9720;SDS011;4899;42.644;23.366;2024-01-16T13:14:44;3.07;;;2.80;;
9720;SDS011;4899;42.644;23.366;2024-01-16T13:17:09;3.00;;;2.40;;
9720;SDS011;4899;42.644;23.366;2024-01-16T13:19:35;3.07;;;2.77;;
9720;SDS011;4899;42.644;23.366;2024-01-16T13:22:01;3.67;;;2.40;;
9720;SDS011;4899;42.644;23.366;2024-01-16T13:24:27;2.67;;;2.10;;
9720;SDS011;4899;42.644;23.366;2024-01-16T13:26:52;2.43;;;2.23;;
9720;SDS011;4899;42.644;23.366;2024-01-16T13:29:18;3.00;;;2.80;;
9720;SDS011;4899;42.644;23.366;2024-01-16T13:31:44;2.50;;;2.30;;
9720;SDS011;4899;42.644;23.366;2024-01-16T13:34:09;1.90;;;1.80;;
9720;SDS011;4899;42.644;23.366;2024-01-16T13:36:35;2.27;;;2.07;;
9720;SDS011;4899;42.644;23.366;2024-01-16T13:39:01;3.80;;;2.33;;
9720;SDS011;4899;42.644;23.366;2024-01-16T13:41:26;2.60;;;2.27;;
9720;SDS011;4899;42.644;23.366;2024-01-16T13:43:52;2.83;;;2.53;;
9720;SDS011;4899;42.644;23.366;2024-01-16T13:46:18;3.17;;;1.90;;
9720;SDS011;4899;42.644;23.366;2024-01-16T13:48:43;2.00;;;1.90;;
9720;SDS011;4899;42.644;23.366;2024-01-16T13:51:09;2.70;;;2.00;;
9720;SDS011;4899;42.644;23.366;2024-01-16T13:53:35;3.70;;;1.97;;
9720;SDS011;4899;42.644;23.366;2024-01-16T13:56:01;2.60;;;2.40;;
9720;SDS011;4899;42.644;23.366;2024-01-16T13:58:26;3.53;;;2.37;;
9720;SDS011;4899;42.644;23.366;2024-01-16T14:00:51;2.37;;;2.17;;
9720;SDS011;4899;42.644;23.366;2024-01-16T14:03:17;2.63;;;2.10;;
9720;SDS011;4899;42.644;23.366;2024-01-16T14:05:42;4.80;;;2.07;;
9720;SDS011;4899;42.644;23.366;2024-01-16T14:08:08;5.20;;;2.53;;
9720;SDS011;4899;42.644;23.366;2024-01-16T14:10:37;2.77;;;2.57;;
9720;SDS011;4899;42.644;23.366;2024-01-16T14:13:03;4.93;;;2.83;;
9720;SDS011;4899;42.644;23.366;2024-01-16T14:15:29;3.33;;;2.60;;
9720;SDS011;4899;42.644;23.366;2024-01-16T14:17:55;2.93;;;2.43;;
9720;SDS011;4899;42.644;23.366;2024-01-16T14:20:22;4.93;;;3.10;;
9720;SDS011;4899;42.644;23.366;2024-01-16T14:22:48;5.00;;;3.13;;
9720;SDS011;4899;42.644;23.366;2024-01-16T14:25:13;3.27;;;2.27;;
9720;SDS011;4899;42.644;23.366;2024-01-16T14:27:43;3.10;;;2.80;;
9720;SDS011;4899;42.644;23.366;2024-01-16T14:30:12;3.23;;;2.60;;
9720;SDS011;4899;42.644;23.366;2024-01-16T14:32:39;3.77;;;2.70;;
9720;SDS011;4899;42.644;23.366;2024-01-16T14:35:05;3.03;;;2.70;;
9720;SDS011;4899;42.644;23.366;2024-01-16T14:37:31;3.17;;;2.70;;
9720;SDS011;4899;42.644;23.366;2024-01-16T14:39:57;2.90;;;2.70;;
9720;SDS011;4899;42.644;23.366;2024-01-16T14:42:26;3.10;;;2.90;;
9720;SDS011;4899;42.644;23.366;2024-01-16T14:44:51;3.70;;;3.33;;
9720;SDS011;4899;42.644;23.366;2024-01-16T14:47:17;5.20;;;2.87;;
9720;SDS011;4899;42.644;23.366;2024-01-16T14:49:43;6.60;;;3.20;;
9720;SDS011;4899;42.644;23.366;2024-01-16T14:52:08;3.53;;;3.23;;
9720;SDS011;4899;42.644;23.366;2024-01-16T14:54:33;3.03;;;2.73;;
9720;SDS011;4899;42.644;23.366;2024-01-16T14:56:59;4.73;;;2.90;;
9720;SDS011;4899;42.644;23.366;2024-01-16T14:59:24;4.07;;;3.20;;
9720;SDS011;4899;42.644;23.366;2024-01-16T15:01:49;7.07;;;3.40;;
9720;SDS011;4899;42.644;23.366;2024-01-16T15:04:17;4.57;;;3.30;;
9720;SDS011;4899;42.644;23.366;2024-01-16T15:06:42;2.70;;;2.50;;
9720;SDS011;4899;42.644;23.366;2024-01-16T15:09:07;5.17;;;3.30;;